Crescent Beach, South Carolina
Current Conditions -  °F | °C
As of 4:17 AM on Monday 24 Nov 2014 (Local Time) from KCRE Reporting Station
Light Rain Light Rain  
Wind Chill: 65°   Ceiling: 2500
Heat Index: 65°   Visibility: 6mi
Dew Point: 62°   Wind: 13mph
Humidity: 90%   Direction: 210°SSW
Pressure: 29.83"   Gusts: NA
Location:  33.8371°N, 78.6471°W
Report Text: KCRE 240917Z AUTO 21011KT 6SM -RA BR BKN025 BKN033 OVC060 18/17 A2983 RMK AO1 RAB11 P0001 T01830167
Loading
Personal Weather Stations






























Interactive Weather Map New forecast layout! Learn more

10-Day Weather Forecast

Advertisements
Track Severe Weather on mobile